Time;durP1;ratioP1;P1;durP2;ratioP2;P2;SDS_P1;SDS_P2;PMS_P1;PMS_P2;Temp;Humidity;BMP_temperature;BMP_pressure;BME280_temperature;BME280_humidity;BME280_pressure;Samples;Min_cycle;Max_cycle;Signal;HPM_P1;HPM_P2
2021/04/09 00:00:25;;;;;;;10.32;4.45;;;8.00;55.50;;;;;;10215508;28;20047;-76
2021/04/09 00:05:40;;;;;;;7.82;4.60;;;8.40;54.60;;;;;;10216385;28;20067;-76
2021/04/09 00:10:33;;;;;;;8.43;4.15;;;9.30;55.30;;;;;;10215817;28;20048;-78
2021/04/09 00:15:26;;;;;;;6.07;3.95;;;8.30;54.70;;;;;;10215333;28;20510;-77
2021/04/09 00:20:24;;;;;;;8.80;4.18;;;8.70;54.80;;;;;;10215009;28;20051;-76
2021/04/09 00:25:18;;;;;;;8.00;3.88;;;6.60;53.70;;;;;;10219762;28;20444;-75
2021/04/09 00:30:17;;;;;;;8.80;3.63;;;7.50;54.30;;;;;;10222477;28;20114;-75
2021/04/09 00:35:11;;;;;;;6.97;3.75;;;7.80;55.00;;;;;;10222853;28;20052;-76
2021/04/09 00:40:06;;;;;;;5.72;3.60;;;7.00;54.40;;;;;;10222191;28;20130;-77
2021/04/09 00:44:59;;;;;;;6.03;3.05;;;8.80;56.40;;;;;;10222140;28;20474;-77
2021/04/09 00:49:52;;;;;;;5.55;3.35;;;7.90;56.40;;;;;;10221816;28;20044;-79
2021/04/09 00:54:46;;;;;;;5.50;3.25;;;7.70;56.60;;;;;;10221547;28;20048;-75
2021/04/09 00:59:39;;;;;;;7.88;3.58;;;7.50;55.50;;;;;;10221921;28;20047;-77
2021/04/09 01:04:32;;;;;;;4.80;3.38;;;7.30;54.60;;;;;;10221707;28;20047;-77
2021/04/09 01:09:26;;;;;;;7.50;3.75;;;7.10;54.40;;;;;;10221810;28;20048;-76
2021/04/09 01:14:18;;;;;;;5.72;3.50;;;6.80;54.30;;;;;;10220767;28;20044;-76
2021/04/09 01:19:30;;;;;;;8.88;3.20;;;8.30;55.00;;;;;;10220929;28;20048;-77
2021/04/09 01:24:43;;;;;;;7.35;3.30;;;;;;;;;;10221417;28;20063;-76
2021/04/09 01:30:06;;;;;;;5.43;3.33;;;7.60;55.30;;;;;;10220308;28;20057;-76
2021/04/09 01:35:06;;;;;;;6.68;3.72;;;7.50;55.30;;;;;;10218874;28;20053;-76
2021/04/09 01:40:02;;;;;;;9.18;3.75;;;;;;;;;;10219041;28;20615;-75
2021/04/09 01:44:56;;;;;;;9.32;4.68;;;8.40;55.70;;;;;;10217681;28;20052;-76
2021/04/09 01:49:50;;;;;;;8.30;4.15;;;6.70;55.20;;;;;;10217095;28;20051;-77
2021/04/09 01:54:47;;;;;;;10.43;5.18;;;6.60;55.30;;;;;;10217014;28;20044;-76
2021/04/09 01:59:41;;;;;;;9.82;4.13;;;6.80;54.90;;;;;;10217331;28;20423;-77
2021/04/09 02:04:34;;;;;;;7.90;3.67;;;9.00;56.00;;;;;;10198411;28;20050;-77
2021/04/09 02:09:30;;;;;;;7.00;3.60;;;6.50;54.80;;;;;;10216364;28;20660;-76
2021/04/09 02:14:25;;;;;;;7.97;3.25;;;7.80;56.70;;;;;;10215961;28;20412;-76
2021/04/09 02:19:17;;;;;;;5.78;3.33;;;7.90;56.80;;;;;;10216941;28;20044;-75
2021/04/09 02:24:10;;;;;;;4.55;3.17;;;7.10;55.10;;;;;;10216408;28;20486;-76
2021/04/09 02:29:05;;;;;;;7.50;3.80;;;7.10;55.30;;;;;;10216199;28;20051;-76
2021/04/09 02:33:58;;;;;;;8.25;4.55;;;7.20;56.50;;;;;;10216254;28;20058;-77
2021/04/09 02:38:54;;;;;;;11.32;5.55;;;6.70;55.40;;;;;;10215498;28;20058;-78
2021/04/09 02:43:47;;;;;;;9.07;4.78;;;8.40;56.10;;;;;;10216178;28;20051;-75
2021/04/09 02:48:52;;;;;;;11.75;5.10;;;8.40;56.10;;;;;;10214531;28;20124;-76
2021/04/09 02:53:48;;;;;;;9.77;4.35;;;6.80;55.80;;;;;;10214408;28;20043;-77
2021/04/09 02:58:43;;;;;;;10.07;4.70;;;7.20;56.20;;;;;;10214737;28;20040;-76
2021/04/09 03:03:37;;;;;;;13.85;6.32;;;7.00;56.20;;;;;;10214576;28;20096;-77
2021/04/09 03:08:29;;;;;;;13.82;6.88;;;7.30;56.50;;;;;;10214697;28;20452;-76
2021/04/09 03:13:23;;;;;;;14.60;7.20;;;7.20;57.60;;;;;;10214535;28;20043;-76
2021/04/09 03:18:16;;;;;;;10.55;5.90;;;9.10;57.50;;;;;;10214120;28;20518;-77
2021/04/09 03:23:09;;;;;;;15.77;6.50;;;8.80;57.20;;;;;;10214352;28;20055;-77
2021/04/09 03:28:02;;;;;;;10.98;6.72;;;8.00;56.60;;;;;;10213990;28;20047;-78
2021/04/09 03:32:55;;;;;;;11.63;6.82;;;8.30;57.60;;;;;;10213860;28;20417;-77
2021/04/09 03:37:48;;;;;;;11.65;6.50;;;6.70;56.90;;;;;;10213578;28;20059;-77
2021/04/09 03:42:42;;;;;;;11.18;5.38;;;6.80;56.80;;;;;;10213747;28;20054;-77
2021/04/09 03:47:35;;;;;;;13.57;6.53;;;8.70;57.80;;;;;;10213827;28;20417;-76
2021/04/09 03:52:30;;;;;;;12.52;6.03;;;8.80;58.30;;;;;;10214045;28;20047;-75
2021/04/09 03:57:22;;;;;;;13.77;5.85;;;6.60;57.60;;;;;;10213938;28;20558;-75
2021/04/09 04:02:15;;;;;;;10.52;5.32;;;6.50;58.00;;;;;;10221537;28;20044;-76
2021/04/09 04:07:08;;;;;;;15.43;5.30;;;8.60;58.20;;;;;;10221162;28;20077;-76
2021/04/09 04:12:01;;;;;;;12.43;5.13;;;7.00;57.90;;;;;;10220696;28;20051;-77
2021/04/09 04:16:55;;;;;;;13.30;5.07;;;7.90;59.10;;;;;;10221187;28;20147;-77
2021/04/09 04:21:47;;;;;;;7.82;5.28;;;6.60;57.20;;;;;;10220761;28;20458;-76
2021/04/09 04:26:40;;;;;;;11.77;6.13;;;8.00;57.80;;;;;;10220270;28;20043;-76
2021/04/09 04:31:34;;;;;;;9.57;4.95;;;;;;;;;;10220193;28;20043;-77
2021/04/09 04:36:27;;;;;;;10.88;5.57;;;7.30;57.30;;;;;;10220138;28;20047;-77
2021/04/09 04:41:19;;;;;;;12.60;5.13;;;;;;;;;;10219412;28;20051;-78
2021/04/09 04:46:12;;;;;;;12.68;5.40;;;7.10;56.00;;;;;;10220044;28;20043;-77
2021/04/09 04:51:06;;;;;;;12.73;5.60;;;6.50;56.60;;;;;;10219913;28;20051;-76
2021/04/09 04:55:59;;;;;;;14.00;5.85;;;7.20;57.20;;;;;;10218818;28;20051;-75
2021/04/09 05:00:52;;;;;;;14.02;6.22;;;6.90;56.00;;;;;;10201562;28;20051;-80
2021/04/09 05:05:45;;;;;;;12.65;5.50;;;6.30;56.30;;;;;;10219018;28;20445;-77
2021/04/09 05:10:38;;;;;;;15.93;7.63;;;;;;;;;;10218039;28;20044;-76
2021/04/09 05:15:34;;;;;;;17.92;7.60;;;6.50;56.40;;;;;;10199386;28;20405;-77
2021/04/09 05:20:26;;;;;;;24.10;8.40;;;6.80;56.50;;;;;;10218196;28;20043;-76
2021/04/09 05:25:21;;;;;;;12.70;6.75;;;;;;;;;;10217586;28;20131;-76
2021/04/09 05:30:17;;;;;;;13.52;7.35;;;7.50;57.50;;;;;;10217802;28;20051;-78
2021/04/09 05:35:12;;;;;;;12.50;6.85;;;7.20;57.30;;;;;;10216946;28;20048;-78
2021/04/09 05:40:05;;;;;;;14.90;8.60;;;6.30;56.90;;;;;;10197703;28;20051;-76
2021/04/09 05:44:58;;;;;;;19.75;9.98;;;;;;;;;;10216233;28;20554;-75
2021/04/09 05:49:52;;;;;;;21.33;10.05;;;6.90;56.50;;;;;;10215717;28;20062;-75
2021/04/09 05:54:45;;;;;;;18.25;9.57;;;7.20;59.10;;;;;;10216316;28;20489;-79
2021/04/09 05:59:37;;;;;;;18.15;8.48;;;8.60;58.30;;;;;;10216236;28;20410;-77
2021/04/09 06:04:31;;;;;;;19.35;9.55;;;7.70;56.80;;;;;;10216164;28;20126;-76
2021/04/09 06:09:25;;;;;;;22.58;11.55;;;7.30;56.20;;;;;;10215663;28;20043;-76
2021/04/09 06:14:18;;;;;;;21.00;10.90;;;7.60;57.30;;;;;;10215935;28;20494;-77
2021/04/09 06:19:11;;;;;;;17.40;9.27;;;;;;;;;;10215187;28;20044;-78
2021/04/09 06:24:05;;;;;;;14.23;7.60;;;8.80;58.20;;;;;;10214447;28;20051;-77
2021/04/09 06:28:59;;;;;;;18.77;9.30;;;;;;;;;;10213756;28;20052;-77
2021/04/09 06:33:52;;;;;;;18.73;8.20;;;8.80;57.40;;;;;;10214159;28;20504;-77
2021/04/09 06:38:45;;;;;;;10.68;6.43;;;8.40;57.30;;;;;;10214491;28;20055;-77
2021/04/09 06:43:38;;;;;;;31.23;11.00;;;8.20;56.30;;;;;;10214576;28;20449;-76
2021/04/09 06:48:32;;;;;;;18.75;7.63;;;8.70;55.20;;;;;;10215708;28;20050;-76
2021/04/09 06:53:26;;;;;;;19.83;7.30;;;9.00;55.20;;;;;;10214022;28;20112;-77
2021/04/09 06:58:20;;;;;;;19.35;9.30;;;8.40;54.80;;;;;;10213629;28;20048;-77
2021/04/09 07:03:13;;;;;;;26.02;10.93;;;8.30;54.70;;;;;;10213280;28;20058;-76
2021/04/09 07:08:07;;;;;;;16.90;8.60;;;8.90;55.60;;;;;;10212812;28;20040;-76
2021/04/09 07:13:05;;;;;;;18.65;11.00;;;9.00;54.60;;;;;;10212485;28;20486;-76
2021/04/09 07:17:57;;;;;;;24.35;11.25;;;;;;;;;;10213627;28;20501;-76
2021/04/09 07:22:52;;;;;;;20.95;11.23;;;10.20;55.90;;;;;;10212866;28;20290;-76
2021/04/09 07:27:48;;;;;;;20.88;10.82;;;10.10;55.90;;;;;;10194420;28;20478;-76
2021/04/09 07:32:40;;;;;;;24.98;11.43;;;8.60;55.40;;;;;;10213009;28;20043;-73
2021/04/09 07:37:47;;;;;;;24.77;11.30;;;7.40;55.80;;;;;;10221418;28;20070;-73
2021/04/09 07:42:40;;;;;;;22.35;12.32;;;9.20;57.00;;;;;;10202727;28;20039;-74
2021/04/09 07:47:33;;;;;;;18.77;10.20;;;6.70;55.80;;;;;;10222128;28;20047;-74
2021/04/09 07:52:37;;;;;;;17.90;9.88;;;9.20;57.00;;;;;;10220911;28;20058;-75
2021/04/09 07:57:30;;;;;;;20.92;9.45;;;9.10;56.20;;;;;;10220211;28;20067;-74
2021/04/09 08:02:38;;;;;;;20.23;9.57;;;9.60;55.50;;;;;;10220616;28;20044;-75
2021/04/09 08:07:35;;;;;;;18.80;8.63;;;7.50;54.00;;;;;;10220215;28;20049;-74
2021/04/09 08:12:32;;;;;;;14.30;8.43;;;;;;;;;;10219710;28;20499;-75
2021/04/09 08:17:26;;;;;;;19.98;8.10;;;7.60;53.60;;;;;;10219801;28;20076;-73
2021/04/09 08:22:21;;;;;;;21.42;9.32;;;7.90;55.10;;;;;;10220431;28;20123;-73
2021/04/09 08:27:15;;;;;;;16.55;7.82;;;7.60;54.20;;;;;;10203987;28;20082;-73
2021/04/09 08:32:09;;;;;;;15.35;8.02;;;8.40;54.20;;;;;;10218224;28;20404;-72
2021/04/09 08:37:03;;;;;;;18.67;7.72;;;;;;;;;;10218116;28;20136;-73
2021/04/09 08:42:09;;;;;;;16.38;8.18;;;9.50;53.70;;;;;;10177766;28;20051;-73
2021/04/09 08:47:02;;;;;;;14.75;6.75;;;;;;;;;;10176874;28;20073;-75
2021/04/09 08:51:59;;;;;;;14.53;6.57;;;;;;;;;;10174225;28;20040;-75
2021/04/09 08:56:52;;;;;;;13.77;5.90;;;;;;;;;;10162090;28;20051;-73
2021/04/09 09:02:13;;;;;;;13.73;6.38;;;8.80;51.70;;;;;;10157364;28;20046;-73
2021/04/09 09:07:06;;;;;;;13.68;5.97;;;10.00;51.40;;;;;;10163569;28;20520;-73
2021/04/09 09:12:00;;;;;;;12.27;5.68;;;10.10;50.80;;;;;;10174644;28;20123;-73
2021/04/09 09:16:54;;;;;;;13.70;5.50;;;10.80;52.30;;;;;;10175358;28;20082;-73
2021/04/09 09:21:47;;;;;;;14.48;6.40;;;10.40;51.40;;;;;;10176093;28;20052;-73
2021/04/09 09:26:41;;;;;;;14.98;6.28;;;10.30;52.20;;;;;;10176198;28;20127;-73
2021/04/09 09:31:35;;;;;;;19.13;7.78;;;9.50;51.50;;;;;;10168641;28;20047;-72
2021/04/09 09:36:58;;;;;;;13.70;6.20;;;9.20;50.30;;;;;;10175215;28;20054;-73
2021/04/09 09:41:51;;;;;;;15.43;6.53;;;;;;;;;;10213066;28;20096;-75
2021/04/09 09:46:51;;;;;;;9.63;5.72;;;9.90;51.00;;;;;;10214494;28;20052;-74
2021/04/09 09:51:46;;;;;;;11.45;5.10;;;11.50;50.90;;;;;;10214182;28;20120;-74
2021/04/09 09:56:39;;;;;;;10.88;5.65;;;11.20;51.00;;;;;;10213511;28;20063;-75
2021/04/09 10:01:32;;;;;;;11.77;5.18;;;;;;;;;;10203586;28;20068;-72
2021/04/09 10:06:27;;;;;;;11.10;4.72;;;10.00;48.70;;;;;;10214643;28;20502;-72
2021/04/09 10:11:27;;;;;;;15.75;5.45;;;9.90;47.90;;;;;;10196832;28;20122;-71
2021/04/09 10:16:22;;;;;;;7.65;4.40;;;12.80;49.30;;;;;;10215126;28;20043;-72
2021/04/09 10:21:16;;;;;;;8.65;4.40;;;;;;;;;;10214816;28;20126;-73
2021/04/09 10:26:12;;;;;;;8.95;4.32;;;;;;;;;;10213751;28;20252;-75
2021/04/09 10:31:10;;;;;;;11.32;4.38;;;11.50;46.50;;;;;;10213592;28;20127;-72
2021/04/09 10:36:15;;;;;;;11.02;5.15;;;10.00;45.60;;;;;;10213199;28;20047;-72
2021/04/09 10:41:08;;;;;;;8.15;3.80;;;11.00;44.40;;;;;;10213755;28;20062;-72
2021/04/09 10:46:10;;;;;;;7.75;3.85;;;11.60;45.10;;;;;;10213440;28;20115;-73
2021/04/09 10:51:04;;;;;;;10.15;4.00;;;13.30;46.40;;;;;;10213975;28;20040;-73
2021/04/09 10:56:06;;;;;;;8.88;3.80;;;10.80;44.20;;;;;;10213855;28;20048;-73
2021/04/09 11:00:59;;;;;;;8.52;4.10;;;;;;;;;;10211977;28;20058;-75
2021/04/09 11:05:53;;;;;;;8.90;3.88;;;11.00;40.20;;;;;;10196101;28;20059;-73
2021/04/09 11:10:46;;;;;;;12.52;4.25;;;10.90;43.30;;;;;;10211609;28;20069;-73
2021/04/09 11:15:40;;;;;;;10.32;3.63;;;11.20;40.50;;;;;;10212473;28;20058;-73
2021/04/09 11:20:35;;;;;;;10.00;4.20;;;11.60;42.70;;;;;;10212307;28;20127;-76
2021/04/09 11:25:34;;;;;;;8.23;4.05;;;13.70;42.30;;;;;;10211271;28;20055;-77
2021/04/09 11:30:31;;;;;;;11.00;4.60;;;;;;;;;;10211533;28;20047;-77
2021/04/09 11:35:25;;;;;;;12.82;5.03;;;15.60;36.10;;;;;;10211514;28;20039;-78
2021/04/09 11:40:34;;;;;;;11.73;4.50;;;15.60;31.70;;;;;;10210956;28;20490;-77
2021/04/09 11:45:38;;;;;;;8.90;4.70;;;15.80;33.90;;;;;;10210798;28;20048;-76
2021/04/09 11:50:31;;;;;;;12.63;4.90;;;16.50;36.40;;;;;;10212926;28;20450;-75
2021/04/09 11:55:27;;;;;;;12.20;5.20;;;;;;;;;;10209897;28;20044;-76
2021/04/09 12:00:26;;;;;;;16.90;4.97;;;17.50;36.00;;;;;;10212321;28;20059;-75
2021/04/09 12:05:21;;;;;;;8.63;5.20;;;19.40;32.40;;;;;;10210965;28;20501;-74
2021/04/09 12:10:15;;;;;;;13.00;5.00;;;21.60;28.10;;;;;;10195234;28;20080;-77
2021/04/09 12:15:08;;;;;;;11.52;4.47;;;22.70;28.80;;;;;;10209270;28;20048;-75
2021/04/09 12:20:05;;;;;;;9.82;4.55;;;20.50;28.00;;;;;;10213552;28;20055;-75
2021/04/09 12:24:58;;;;;;;10.10;4.10;;;22.60;28.50;;;;;;10219012;28;20069;-74
2021/04/09 12:29:51;;;;;;;11.55;4.45;;;21.70;24.70;;;;;;10218365;28;20039;-76
2021/04/09 12:34:44;;;;;;;6.72;4.13;;;22.30;28.90;;;;;;10175813;28;20051;-75
2021/04/09 12:39:38;;;;;;;10.48;4.07;;;21.60;27.70;;;;;;10177894;28;20048;-75
2021/04/09 12:44:31;;;;;;;8.48;4.28;;;22.90;29.20;;;;;;10177136;28;20078;-76
2021/04/09 12:49:24;;;;;;;8.82;4.45;;;22.50;27.60;;;;;;10178133;28;20085;-76
2021/04/09 12:54:17;;;;;;;9.90;5.28;;;19.40;27.70;;;;;;10177219;28;20056;-76
2021/04/09 12:59:11;;;;;;;12.43;4.97;;;18.70;28.80;;;;;;10217414;28;20051;-76
2021/04/09 13:04:04;;;;;;;9.60;4.63;;;19.70;29.00;;;;;;10216940;28;20066;-75
2021/04/09 13:08:56;;;;;;;7.18;4.60;;;19.30;28.30;;;;;;10217879;28;20052;-76
2021/04/09 13:13:50;;;;;;;13.60;5.72;;;19.30;29.20;;;;;;10217103;28;20039;-77
2021/04/09 13:18:43;;;;;;;8.57;4.30;;;19.80;28.30;;;;;;10201268;28;20036;-76
2021/04/09 13:23:36;;;;;;;9.70;4.82;;;19.50;29.60;;;;;;10216337;28;20047;-76
2021/04/09 13:28:29;;;;;;;18.73;5.80;;;18.50;28.90;;;;;;10215679;28;20478;-76
2021/04/09 13:33:24;;;;;;;11.95;5.43;;;18.40;27.90;;;;;;10195398;28;20043;-76
2021/04/09 13:38:18;;;;;;;11.25;5.00;;;18.40;29.80;;;;;;10216039;28;20059;-78
2021/04/09 13:43:11;;;;;;;11.23;4.43;;;18.50;28.80;;;;;;10217250;28;20563;-74
2021/04/09 13:48:05;;;;;;;7.97;4.57;;;17.80;28.30;;;;;;10216502;28;20043;-75
2021/04/09 13:52:58;;;;;;;11.68;5.28;;;;;;;;;;10215577;28;20044;-77
2021/04/09 13:57:51;;;;;;;10.98;5.13;;;18.40;30.40;;;;;;10215183;28;20047;-77
2021/04/09 14:02:44;;;;;;;11.75;5.35;;;;;;;;;;10215673;28;20063;-76
2021/04/09 14:07:37;;;;;;;12.23;5.32;;;17.50;29.70;;;;;;10214455;28;20383;-76
2021/04/09 14:12:30;;;;;;;12.35;5.47;;;17.50;29.70;;;;;;10215333;28;20045;-76
2021/04/09 14:17:24;;;;;;;10.60;5.88;;;16.80;27.80;;;;;;10196487;28;20455;-77
2021/04/09 14:22:17;;;;;;;12.70;5.47;;;;;;;;;;10211956;28;20070;-75
2021/04/09 14:27:10;;;;;;;13.02;5.65;;;17.00;29.10;;;;;;10211261;28;20071;-76
2021/04/09 14:32:03;;;;;;;14.55;5.20;;;15.80;29.40;;;;;;10214741;28;20055;-76
2021/04/09 14:36:57;;;;;;;13.48;5.57;;;16.70;29.50;;;;;;10213643;28;20318;-77
2021/04/09 14:41:50;;;;;;;13.98;5.35;;;;;;;;;;10213156;28;20103;-77
2021/04/09 14:46:44;;;;;;;8.15;5.03;;;17.80;31.80;;;;;;10211194;28;20181;-76
2021/04/09 14:51:37;;;;;;;12.18;4.72;;;15.40;31.00;;;;;;10214142;28;20043;-77
2021/04/09 14:56:31;;;;;;;8.65;4.70;;;15.80;29.60;;;;;;10213358;28;20047;-73
2021/04/09 15:01:24;;;;;;;11.80;4.70;;;16.30;29.60;;;;;;10213410;28;20048;-73
2021/04/09 15:06:17;;;;;;;7.18;4.30;;;;;;;;;;10194785;28;20048;-72
2021/04/09 15:11:11;;;;;;;10.50;5.05;;;16.10;28.30;;;;;;10211613;28;20520;-76
2021/04/09 15:16:06;;;;;;;12.15;4.70;;;15.00;29.70;;;;;;10194111;28;20044;-77
2021/04/09 15:21:00;;;;;;;8.43;4.93;;;15.60;29.20;;;;;;10212913;28;20074;-76
2021/04/09 15:25:55;;;;;;;9.55;4.28;;;16.10;29.80;;;;;;10212330;28;20415;-77
2021/04/09 15:30:54;;;;;;;8.40;4.47;;;15.80;29.30;;;;;;10207604;28;20055;-76
2021/04/09 15:35:47;;;;;;;8.07;4.30;;;16.00;29.70;;;;;;10211790;28;20044;-73
2021/04/09 15:40:40;;;;;;;11.57;5.13;;;15.30;29.90;;;;;;10212091;28;20052;-77
2021/04/09 15:45:33;;;;;;;10.13;5.00;;;16.00;31.20;;;;;;10212541;28;20052;-74
2021/04/09 15:50:26;;;;;;;9.52;4.60;;;;;;;;;;10213436;28;20048;-75
2021/04/09 15:55:20;;;;;;;8.82;4.68;;;15.70;29.60;;;;;;10213003;28;20054;-76
2021/04/09 16:00:13;;;;;;;11.40;4.82;;;15.70;31.00;;;;;;10219600;28;20080;-76
2021/04/09 16:05:08;;;;;;;8.50;4.35;;;17.70;30.70;;;;;;10220185;28;20066;-76
2021/04/09 16:10:01;;;;;;;10.68;4.75;;;16.30;31.40;;;;;;10220305;28;20055;-76
2021/04/09 16:14:55;;;;;;;15.75;5.10;;;15.50;30.10;;;;;;10219465;28;20088;-77
2021/04/09 16:19:47;;;;;;;11.25;4.78;;;15.10;31.10;;;;;;10220193;28;20446;-76
2021/04/09 16:24:40;;;;;;;13.13;5.40;;;15.30;30.40;;;;;;10218315;28;20105;-78
2021/04/09 16:29:34;;;;;;;10.43;5.10;;;18.30;33.00;;;;;;10217130;28;20490;-77
2021/04/09 16:34:31;;;;;;;9.10;4.88;;;15.50;30.80;;;;;;10198751;28;20058;-78
2021/04/09 16:39:24;;;;;;;8.40;4.30;;;15.10;30.70;;;;;;10218305;28;20051;-76
2021/04/09 16:44:16;;;;;;;14.50;5.22;;;15.90;31.30;;;;;;10219279;28;20086;-76
2021/04/09 16:49:09;;;;;;;11.60;5.30;;;15.10;31.00;;;;;;10218793;28;20043;-78
2021/04/09 16:54:07;;;;;;;7.88;4.68;;;14.90;32.00;;;;;;10215729;28;20040;-78
2021/04/09 16:58:59;;;;;;;11.02;5.78;;;16.90;33.10;;;;;;10218630;28;20052;-77
2021/04/09 17:03:52;;;;;;;13.75;5.57;;;;;;;;;;10218107;28;20059;-77
2021/04/09 17:08:45;;;;;;;11.77;5.22;;;14.60;32.20;;;;;;10199280;28;20503;-79
2021/04/09 17:13:39;;;;;;;12.40;5.45;;;15.20;32.80;;;;;;10218308;28;20051;-78
2021/04/09 17:18:36;;;;;;;11.80;5.43;;;16.10;33.30;;;;;;10216305;28;20090;-77
2021/04/09 17:23:29;;;;;;;8.15;5.13;;;;;;;;;;10216056;28;20048;-77
2021/04/09 17:28:22;;;;;;;10.85;5.18;;;17.20;33.40;;;;;;10216072;28;20047;-76
2021/04/09 17:33:15;;;;;;;11.02;5.25;;;14.30;32.30;;;;;;10216000;28;20047;-76
2021/04/09 17:38:16;;;;;;;14.18;5.88;;;15.20;33.70;;;;;;10216466;28;20056;-74
2021/04/09 17:43:10;;;;;;;11.85;6.13;;;17.40;34.10;;;;;;10200105;28;20043;-76
2021/04/09 17:48:05;;;;;;;24.00;6.95;;;15.20;34.00;;;;;;10198069;28;20574;-76
2021/04/09 17:52:59;;;;;;;14.85;5.57;;;14.60;34.00;;;;;;10216753;28;20061;-76
2021/04/09 17:57:51;;;;;;;11.15;5.97;;;14.60;34.10;;;;;;10216544;28;20039;-75
2021/04/09 18:02:44;;;;;;;10.75;5.00;;;14.50;34.10;;;;;;10216129;28;20508;-76
2021/04/09 18:07:37;;;;;;;11.77;6.00;;;14.50;33.60;;;;;;10216237;28;20052;-76
2021/04/09 18:12:31;;;;;;;8.93;5.03;;;14.60;34.80;;;;;;10215839;28;20417;-75
2021/04/09 18:17:26;;;;;;;11.63;5.82;;;14.40;34.90;;;;;;10215092;28;20409;-77
2021/04/09 18:22:21;;;;;;;14.27;5.93;;;14.50;34.30;;;;;;10194805;28;20126;-76
2021/04/09 18:27:13;;;;;;;12.55;5.78;;;14.70;35.30;;;;;;10212173;28;20047;-77
2021/04/09 18:32:08;;;;;;;19.48;5.82;;;15.30;35.00;;;;;;10213387;28;20043;-76
2021/04/09 18:37:01;;;;;;;15.30;6.32;;;;;;;;;;10195012;28;20084;-77
2021/04/09 18:41:54;;;;;;;12.07;6.25;;;14.80;34.80;;;;;;10214305;28;20051;-77
2021/04/09 18:46:47;;;;;;;11.07;6.15;;;;;;;;;;10208039;28;20100;-80
2021/04/09 18:51:40;;;;;;;10.90;5.97;;;16.10;36.70;;;;;;10203979;28;20429;-78
2021/04/09 18:56:34;;;;;;;9.75;5.80;;;;;;;;;;10195926;28;20047;-76
2021/04/09 19:01:27;;;;;;;11.80;6.07;;;;;;;;;;10213837;28;20085;-77
2021/04/09 19:06:20;;;;;;;14.60;6.15;;;14.60;35.60;;;;;;10213700;28;20051;-74
2021/04/09 19:11:13;;;;;;;11.88;7.20;;;14.90;35.70;;;;;;10214334;28;20063;-76
2021/04/09 19:16:06;;;;;;;14.10;7.03;;;15.40;36.10;;;;;;10214305;28;20051;-77
2021/04/09 19:20:59;;;;;;;15.93;7.18;;;14.40;35.70;;;;;;10213983;28;20101;-78
2021/04/09 19:25:53;;;;;;;11.65;6.22;;;15.40;37.40;;;;;;10213150;28;20050;-77
2021/04/09 19:30:55;;;;;;;11.38;6.28;;;15.60;36.90;;;;;;10213789;28;20070;-76
2021/04/09 19:35:48;;;;;;;12.25;5.45;;;15.00;37.60;;;;;;10212894;28;20047;-76
2021/04/09 19:40:40;;;;;;;13.85;6.00;;;14.30;37.60;;;;;;10194799;28;20051;-78
2021/04/09 19:45:33;;;;;;;8.93;5.05;;;14.40;37.10;;;;;;10213067;28;20043;-77
2021/04/09 19:50:27;;;;;;;14.10;5.95;;;14.90;38.50;;;;;;10213800;28;20043;-76
2021/04/09 19:55:20;;;;;;;11.48;5.72;;;14.10;37.60;;;;;;10204644;28;20497;-76
2021/04/09 20:00:14;;;;;;;14.68;6.85;;;14.60;38.40;;;;;;10213411;28;20047;-77
2021/04/09 20:05:09;;;;;;;9.45;6.38;;;14.60;38.40;;;;;;10212581;28;20439;-77
2021/04/09 20:10:03;;;;;;;12.25;5.95;;;14.30;37.80;;;;;;10212555;28;20056;-76
2021/04/09 20:14:56;;;;;;;11.40;6.65;;;14.60;38.30;;;;;;10191724;28;20418;-77
2021/04/09 20:19:49;;;;;;;10.95;5.82;;;14.30;38.90;;;;;;10212332;28;20055;-75
2021/04/09 20:24:42;;;;;;;12.13;6.28;;;14.20;38.10;;;;;;10194102;28;20039;-79
2021/04/09 20:29:35;;;;;;;13.95;6.45;;;14.80;39.10;;;;;;10212484;28;20409;-78
2021/04/09 20:34:28;;;;;;;12.27;6.50;;;14.40;38.20;;;;;;10211899;28;20402;-77
2021/04/09 20:39:21;;;;;;;13.35;6.35;;;13.80;38.00;;;;;;10212621;28;20104;-77
2021/04/09 20:44:13;;;;;;;13.00;6.50;;;15.50;39.60;;;;;;10215665;28;20067;-78
2021/04/09 20:49:07;;;;;;;13.25;6.90;;;;;;;;;;10216065;28;20047;-78
2021/04/09 20:54:00;;;;;;;16.55;7.38;;;14.60;39.20;;;;;;10218558;28;20371;-76
2021/04/09 20:58:53;;;;;;;13.38;6.60;;;13.80;38.20;;;;;;10218491;28;20131;-75
2021/04/09 21:03:46;;;;;;;12.52;6.47;;;14.60;38.40;;;;;;10210445;28;20104;-76
2021/04/09 21:08:39;;;;;;;15.30;6.80;;;13.40;37.90;;;;;;10218873;28;20044;-76
2021/04/09 21:13:32;;;;;;;18.02;7.72;;;14.00;38.70;;;;;;10218301;28;20039;-76
2021/04/09 21:18:24;;;;;;;13.43;6.70;;;15.20;39.30;;;;;;10218580;28;20044;-75
2021/04/09 21:23:17;;;;;;;17.30;6.70;;;12.50;38.00;;;;;;10199767;28;20051;-76
2021/04/09 21:28:11;;;;;;;12.30;6.88;;;15.20;39.50;;;;;;10217260;28;20043;-76
2021/04/09 21:33:04;;;;;;;13.48;6.20;;;13.50;38.60;;;;;;10217149;28;20096;-77
2021/04/09 21:37:56;;;;;;;15.02;6.32;;;11.50;37.40;;;;;;10216257;28;20054;-77
2021/04/09 21:42:50;;;;;;;10.35;6.03;;;14.30;39.30;;;;;;10217459;28;20047;-78
2021/04/09 21:47:45;;;;;;;13.70;5.82;;;12.60;38.80;;;;;;10216842;28;20058;-77
2021/04/09 21:52:38;;;;;;;12.57;6.88;;;13.40;38.60;;;;;;10216172;28;20048;-74
2021/04/09 21:57:31;;;;;;;12.27;7.18;;;12.80;38.20;;;;;;10217330;28;20058;-77
2021/04/09 22:02:23;;;;;;;13.40;6.30;;;11.80;38.60;;;;;;10213676;28;20074;-76
2021/04/09 22:07:18;;;;;;;14.60;7.15;;;15.00;40.30;;;;;;10216454;28;20077;-78
2021/04/09 22:12:12;;;;;;;16.75;8.15;;;15.30;40.40;;;;;;10214422;28;20046;-78
2021/04/09 22:17:06;;;;;;;16.00;7.20;;;12.10;38.20;;;;;;10215943;28;20067;-78
2021/04/09 22:21:59;;;;;;;12.82;6.45;;;12.50;39.20;;;;;;10216254;28;20040;-79
2021/04/09 22:26:54;;;;;;;11.30;6.15;;;13.00;39.70;;;;;;10214324;28;20052;-78
2021/04/09 22:31:47;;;;;;;11.80;5.88;;;13.50;40.20;;;;;;10214071;28;20048;-74
2021/04/09 22:36:40;;;;;;;11.38;5.97;;;12.30;39.80;;;;;;10212433;28;20059;-74
2021/04/09 22:41:32;;;;;;;14.18;6.18;;;12.80;40.40;;;;;;10212785;28;20063;-73
2021/04/09 22:46:26;;;;;;;15.00;6.75;;;12.90;40.50;;;;;;10212823;28;20632;-73
2021/04/09 22:51:19;;;;;;;12.48;6.40;;;12.10;39.60;;;;;;10215385;28;20390;-73
2021/04/09 22:56:11;;;;;;;11.25;6.10;;;12.20;39.60;;;;;;10215168;28;20478;-74
2021/04/09 23:01:05;;;;;;;14.93;6.70;;;12.90;41.20;;;;;;10213596;28;20047;-72
2021/04/09 23:05:58;;;;;;;10.35;5.60;;;11.50;40.10;;;;;;10214554;28;20092;-72
2021/04/09 23:10:52;;;;;;;11.23;5.78;;;10.60;40.50;;;;;;10213457;28;20052;-73
2021/04/09 23:15:45;;;;;;;11.23;6.13;;;;;;;;;;10213895;28;20507;-73
2021/04/09 23:20:37;;;;;;;12.10;6.13;;;12.40;40.90;;;;;;10212690;28;20410;-73
2021/04/09 23:25:31;;;;;;;14.25;6.40;;;12.00;41.20;;;;;;10214166;28;20389;-74
2021/04/09 23:30:24;;;;;;;11.55;6.30;;;11.20;40.50;;;;;;10214211;28;20055;-74
2021/04/09 23:35:22;;;;;;;12.63;6.50;;;;;;;;;;10213560;28;20051;-73
2021/04/09 23:40:16;;;;;;;14.38;6.15;;;12.80;42.30;;;;;;10195587;28;20056;-74
2021/04/09 23:45:11;;;;;;;13.40;6.70;;;;;;;;;;10214104;28;20043;-73
2021/04/09 23:50:04;;;;;;;12.60;6.32;;;;;;;;;;10213968;28;20040;-72
2021/04/09 23:54:57;;;;;;;15.00;6.35;;;11.90;42.20;;;;;;10213570;28;20067;-73
2021/04/09 23:59:50;;;;;;;10.95;6.32;;;;;;;;;;10213936;28;20115;-73
